sensor_id;sensor_type;location;lat;lon;timestamp;P1;durP1;ratioP1;P2;durP2;ratioP2
51854;SDS011;37895;53.240;6.572;2023-07-08T00:00:53;10.55;;;4.38;;
51854;SDS011;37895;53.240;6.572;2023-07-08T00:03:19;7.18;;;4.95;;
51854;SDS011;37895;53.240;6.572;2023-07-08T00:05:46;5.88;;;4.35;;
51854;SDS011;37895;53.240;6.572;2023-07-08T00:08:20;9.25;;;4.65;;
51854;SDS011;37895;53.240;6.572;2023-07-08T00:10:46;8.40;;;4.70;;
51854;SDS011;37895;53.240;6.572;2023-07-08T00:13:12;5.97;;;4.15;;
51854;SDS011;37895;53.240;6.572;2023-07-08T00:15:38;6.35;;;4.57;;
51854;SDS011;37895;53.240;6.572;2023-07-08T00:18:15;8.82;;;4.72;;
51854;SDS011;37895;53.240;6.572;2023-07-08T00:20:49;8.77;;;5.13;;
51854;SDS011;37895;53.240;6.572;2023-07-08T00:23:15;6.50;;;4.15;;
51854;SDS011;37895;53.240;6.572;2023-07-08T00:25:41;7.05;;;4.53;;
51854;SDS011;37895;53.240;6.572;2023-07-08T00:30:38;8.15;;;4.68;;
51854;SDS011;37895;53.240;6.572;2023-07-08T00:33:05;5.20;;;4.00;;
51854;SDS011;37895;53.240;6.572;2023-07-08T00:35:32;7.20;;;4.72;;
51854;SDS011;37895;53.240;6.572;2023-07-08T00:37:58;8.73;;;4.72;;
51854;SDS011;37895;53.240;6.572;2023-07-08T00:40:31;7.60;;;4.60;;
51854;SDS011;37895;53.240;6.572;2023-07-08T00:42:59;6.20;;;4.72;;
51854;SDS011;37895;53.240;6.572;2023-07-08T00:48:01;7.07;;;4.90;;
51854;SDS011;37895;53.240;6.572;2023-07-08T00:50:33;6.68;;;4.75;;
51854;SDS011;37895;53.240;6.572;2023-07-08T00:55:57;7.03;;;4.80;;
51854;SDS011;37895;53.240;6.572;2023-07-08T00:58:45;8.07;;;5.13;;
51854;SDS011;37895;53.240;6.572;2023-07-08T01:01:16;7.30;;;5.13;;
51854;SDS011;37895;53.240;6.572;2023-07-08T01:03:45;7.15;;;5.07;;
51854;SDS011;37895;53.240;6.572;2023-07-08T01:06:18;8.38;;;5.13;;
51854;SDS011;37895;53.240;6.572;2023-07-08T01:08:47;8.75;;;5.20;;
51854;SDS011;37895;53.240;6.572;2023-07-08T01:11:18;6.93;;;4.85;;
51854;SDS011;37895;53.240;6.572;2023-07-08T01:13:46;7.07;;;4.93;;
51854;SDS011;37895;53.240;6.572;2023-07-08T01:16:13;6.38;;;5.05;;
51854;SDS011;37895;53.240;6.572;2023-07-08T01:18:40;7.63;;;5.32;;
51854;SDS011;37895;53.240;6.572;2023-07-08T01:23:52;8.50;;;5.15;;
51854;SDS011;37895;53.240;6.572;2023-07-08T01:26:18;5.55;;;4.78;;
51854;SDS011;37895;53.240;6.572;2023-07-08T01:28:44;7.05;;;4.75;;
51854;SDS011;37895;53.240;6.572;2023-07-08T01:33:36;7.40;;;5.85;;
51854;SDS011;37895;53.240;6.572;2023-07-08T01:36:02;7.50;;;5.32;;
51854;SDS011;37895;53.240;6.572;2023-07-08T01:38:28;7.70;;;5.45;;
51854;SDS011;37895;53.240;6.572;2023-07-08T01:40:55;8.82;;;5.60;;
51854;SDS011;37895;53.240;6.572;2023-07-08T01:43:22;7.75;;;5.20;;
51854;SDS011;37895;53.240;6.572;2023-07-08T01:45:47;8.90;;;5.30;;
51854;SDS011;37895;53.240;6.572;2023-07-08T01:48:19;6.40;;;5.30;;
51854;SDS011;37895;53.240;6.572;2023-07-08T01:50:51;8.02;;;5.40;;
51854;SDS011;37895;53.240;6.572;2023-07-08T01:53:21;8.43;;;5.45;;
51854;SDS011;37895;53.240;6.572;2023-07-08T01:55:53;7.55;;;5.60;;
51854;SDS011;37895;53.240;6.572;2023-07-08T01:58:19;9.35;;;5.43;;
51854;SDS011;37895;53.240;6.572;2023-07-08T02:00:44;7.45;;;5.75;;
51854;SDS011;37895;53.240;6.572;2023-07-08T02:03:13;7.63;;;5.32;;
51854;SDS011;37895;53.240;6.572;2023-07-08T02:05:39;8.77;;;5.80;;
51854;SDS011;37895;53.240;6.572;2023-07-08T02:08:05;7.35;;;5.07;;
51854;SDS011;37895;53.240;6.572;2023-07-08T02:10:30;6.72;;;5.03;;
51854;SDS011;37895;53.240;6.572;2023-07-08T02:12:56;7.65;;;5.38;;
51854;SDS011;37895;53.240;6.572;2023-07-08T02:15:22;10.73;;;5.70;;
51854;SDS011;37895;53.240;6.572;2023-07-08T02:17:47;9.15;;;5.70;;
51854;SDS011;37895;53.240;6.572;2023-07-08T02:20:15;6.78;;;5.60;;
51854;SDS011;37895;53.240;6.572;2023-07-08T02:22:41;6.90;;;5.60;;
51854;SDS011;37895;53.240;6.572;2023-07-08T02:25:07;7.95;;;5.45;;
51854;SDS011;37895;53.240;6.572;2023-07-08T02:27:34;7.53;;;6.38;;
51854;SDS011;37895;53.240;6.572;2023-07-08T02:30:00;8.25;;;5.60;;
51854;SDS011;37895;53.240;6.572;2023-07-08T02:32:26;10.25;;;6.32;;
51854;SDS011;37895;53.240;6.572;2023-07-08T02:34:52;8.32;;;5.97;;
51854;SDS011;37895;53.240;6.572;2023-07-08T02:37:17;6.60;;;5.88;;
51854;SDS011;37895;53.240;6.572;2023-07-08T02:39:43;7.10;;;6.22;;
51854;SDS011;37895;53.240;6.572;2023-07-08T02:42:09;7.32;;;6.13;;
51854;SDS011;37895;53.240;6.572;2023-07-08T02:44:34;8.88;;;5.88;;
51854;SDS011;37895;53.240;6.572;2023-07-08T02:47:00;9.10;;;6.70;;
51854;SDS011;37895;53.240;6.572;2023-07-08T02:49:26;9.27;;;6.03;;
51854;SDS011;37895;53.240;6.572;2023-07-08T02:51:51;7.82;;;6.53;;
51854;SDS011;37895;53.240;6.572;2023-07-08T02:54:17;9.65;;;6.07;;
51854;SDS011;37895;53.240;6.572;2023-07-08T02:56:43;10.80;;;6.32;;
51854;SDS011;37895;53.240;6.572;2023-07-08T02:59:11;12.95;;;6.75;;
51854;SDS011;37895;53.240;6.572;2023-07-08T03:01:37;9.52;;;6.15;;
51854;SDS011;37895;53.240;6.572;2023-07-08T03:04:06;8.50;;;6.60;;
51854;SDS011;37895;53.240;6.572;2023-07-08T03:06:39;8.23;;;6.93;;
51854;SDS011;37895;53.240;6.572;2023-07-08T03:09:06;8.27;;;6.32;;
51854;SDS011;37895;53.240;6.572;2023-07-08T03:13:58;9.38;;;6.50;;
51854;SDS011;37895;53.240;6.572;2023-07-08T03:16:23;8.02;;;6.60;;
51854;SDS011;37895;53.240;6.572;2023-07-08T03:18:49;8.45;;;6.78;;
51854;SDS011;37895;53.240;6.572;2023-07-08T03:21:15;8.55;;;6.50;;
51854;SDS011;37895;53.240;6.572;2023-07-08T03:23:43;7.38;;;6.60;;
51854;SDS011;37895;53.240;6.572;2023-07-08T03:26:15;8.93;;;6.43;;
51854;SDS011;37895;53.240;6.572;2023-07-08T03:28:44;10.93;;;6.85;;
51854;SDS011;37895;53.240;6.572;2023-07-08T03:33:35;7.85;;;6.18;;
51854;SDS011;37895;53.240;6.572;2023-07-08T03:38:28;8.93;;;6.70;;
51854;SDS011;37895;53.240;6.572;2023-07-08T03:40:53;7.63;;;6.35;;
51854;SDS011;37895;53.240;6.572;2023-07-08T03:43:19;8.73;;;6.53;;
51854;SDS011;37895;53.240;6.572;2023-07-08T03:45:44;7.75;;;6.78;;
51854;SDS011;37895;53.240;6.572;2023-07-08T03:48:11;9.00;;;6.93;;
51854;SDS011;37895;53.240;6.572;2023-07-08T03:50:37;10.15;;;7.05;;
51854;SDS011;37895;53.240;6.572;2023-07-08T03:55:29;10.48;;;7.40;;
51854;SDS011;37895;53.240;6.572;2023-07-08T03:57:55;9.30;;;6.82;;
51854;SDS011;37895;53.240;6.572;2023-07-08T04:00:20;9.10;;;6.93;;
51854;SDS011;37895;53.240;6.572;2023-07-08T04:02:46;7.43;;;6.50;;
51854;SDS011;37895;53.240;6.572;2023-07-08T04:05:13;10.05;;;6.97;;
51854;SDS011;37895;53.240;6.572;2023-07-08T04:07:44;10.07;;;6.35;;
51854;SDS011;37895;53.240;6.572;2023-07-08T04:12:36;7.53;;;6.72;;
51854;SDS011;37895;53.240;6.572;2023-07-08T04:17:28;9.50;;;7.32;;
51854;SDS011;37895;53.240;6.572;2023-07-08T04:19:54;7.43;;;6.57;;
51854;SDS011;37895;53.240;6.572;2023-07-08T04:22:22;7.60;;;6.78;;
51854;SDS011;37895;53.240;6.572;2023-07-08T04:24:48;8.38;;;6.68;;
51854;SDS011;37895;53.240;6.572;2023-07-08T04:27:15;9.55;;;5.95;;
51854;SDS011;37895;53.240;6.572;2023-07-08T04:29:42;10.85;;;6.93;;
51854;SDS011;37895;53.240;6.572;2023-07-08T04:32:08;9.15;;;6.40;;
51854;SDS011;37895;53.240;6.572;2023-07-08T04:34:34;7.82;;;6.55;;
51854;SDS011;37895;53.240;6.572;2023-07-08T04:37:00;9.75;;;6.47;;
51854;SDS011;37895;53.240;6.572;2023-07-08T04:39:26;9.43;;;6.60;;
51854;SDS011;37895;53.240;6.572;2023-07-08T04:41:52;8.30;;;6.35;;
51854;SDS011;37895;53.240;6.572;2023-07-08T04:44:18;9.13;;;6.20;;
51854;SDS011;37895;53.240;6.572;2023-07-08T04:49:12;9.88;;;6.65;;
51854;SDS011;37895;53.240;6.572;2023-07-08T04:51:38;8.77;;;6.32;;
51854;SDS011;37895;53.240;6.572;2023-07-08T04:54:04;6.68;;;5.93;;
51854;SDS011;37895;53.240;6.572;2023-07-08T04:59:04;11.85;;;6.20;;
51854;SDS011;37895;53.240;6.572;2023-07-08T05:01:31;7.68;;;5.75;;
51854;SDS011;37895;53.240;6.572;2023-07-08T05:03:57;8.40;;;6.25;;
51854;SDS011;37895;53.240;6.572;2023-07-08T05:06:22;8.32;;;6.35;;
51854;SDS011;37895;53.240;6.572;2023-07-08T05:08:48;8.25;;;5.68;;
51854;SDS011;37895;53.240;6.572;2023-07-08T05:11:14;6.68;;;5.50;;
51854;SDS011;37895;53.240;6.572;2023-07-08T05:13:39;8.48;;;5.70;;
51854;SDS011;37895;53.240;6.572;2023-07-08T05:16:05;10.60;;;6.05;;
51854;SDS011;37895;53.240;6.572;2023-07-08T05:18:31;9.85;;;5.40;;
51854;SDS011;37895;53.240;6.572;2023-07-08T05:20:56;8.27;;;5.50;;
51854;SDS011;37895;53.240;6.572;2023-07-08T05:23:22;9.63;;;6.25;;
51854;SDS011;37895;53.240;6.572;2023-07-08T05:25:49;8.43;;;5.97;;
51854;SDS011;37895;53.240;6.572;2023-07-08T05:28:14;6.50;;;5.60;;
51854;SDS011;37895;53.240;6.572;2023-07-08T05:30:41;10.90;;;5.70;;
51854;SDS011;37895;53.240;6.572;2023-07-08T05:33:07;8.20;;;5.95;;
51854;SDS011;37895;53.240;6.572;2023-07-08T05:35:33;7.78;;;5.80;;
51854;SDS011;37895;53.240;6.572;2023-07-08T05:37:59;7.75;;;5.60;;
51854;SDS011;37895;53.240;6.572;2023-07-08T05:40:24;7.95;;;5.35;;
51854;SDS011;37895;53.240;6.572;2023-07-08T05:42:50;6.43;;;5.72;;
51854;SDS011;37895;53.240;6.572;2023-07-08T05:45:15;7.90;;;5.07;;
51854;SDS011;37895;53.240;6.572;2023-07-08T05:47:41;6.10;;;5.00;;
51854;SDS011;37895;53.240;6.572;2023-07-08T05:50:07;7.97;;;5.50;;
51854;SDS011;37895;53.240;6.572;2023-07-08T05:52:33;8.07;;;5.80;;
51854;SDS011;37895;53.240;6.572;2023-07-08T05:54:58;7.43;;;5.57;;
51854;SDS011;37895;53.240;6.572;2023-07-08T05:57:24;6.65;;;5.63;;
51854;SDS011;37895;53.240;6.572;2023-07-08T05:59:50;8.18;;;5.60;;
51854;SDS011;37895;53.240;6.572;2023-07-08T06:02:16;7.82;;;5.97;;
51854;SDS011;37895;53.240;6.572;2023-07-08T06:04:44;6.72;;;4.90;;
51854;SDS011;37895;53.240;6.572;2023-07-08T06:07:10;7.90;;;5.93;;
51854;SDS011;37895;53.240;6.572;2023-07-08T06:09:35;7.97;;;5.10;;
51854;SDS011;37895;53.240;6.572;2023-07-08T06:12:01;7.97;;;5.57;;
51854;SDS011;37895;53.240;6.572;2023-07-08T06:14:27;11.35;;;5.38;;
51854;SDS011;37895;53.240;6.572;2023-07-08T06:16:53;6.43;;;5.05;;
51854;SDS011;37895;53.240;6.572;2023-07-08T06:19:20;6.90;;;5.50;;
51854;SDS011;37895;53.240;6.572;2023-07-08T06:21:46;7.50;;;5.03;;
51854;SDS011;37895;53.240;6.572;2023-07-08T06:24:11;7.43;;;5.18;;
51854;SDS011;37895;53.240;6.572;2023-07-08T06:26:37;7.07;;;5.32;;
51854;SDS011;37895;53.240;6.572;2023-07-08T06:29:03;6.15;;;4.78;;
51854;SDS011;37895;53.240;6.572;2023-07-08T06:31:29;8.10;;;5.05;;
51854;SDS011;37895;53.240;6.572;2023-07-08T06:33:55;8.63;;;4.75;;
51854;SDS011;37895;53.240;6.572;2023-07-08T06:36:21;5.40;;;4.53;;
51854;SDS011;37895;53.240;6.572;2023-07-08T06:38:47;6.82;;;5.10;;
51854;SDS011;37895;53.240;6.572;2023-07-08T06:41:13;6.32;;;4.55;;
51854;SDS011;37895;53.240;6.572;2023-07-08T06:43:39;8.60;;;4.88;;
51854;SDS011;37895;53.240;6.572;2023-07-08T06:46:04;6.82;;;4.40;;
51854;SDS011;37895;53.240;6.572;2023-07-08T06:48:31;7.93;;;4.60;;
51854;SDS011;37895;53.240;6.572;2023-07-08T06:50:57;6.97;;;4.32;;
51854;SDS011;37895;53.240;6.572;2023-07-08T06:55:49;5.25;;;4.60;;
51854;SDS011;37895;53.240;6.572;2023-07-08T06:58:15;5.40;;;4.57;;
51854;SDS011;37895;53.240;6.572;2023-07-08T07:00:42;5.25;;;4.38;;
51854;SDS011;37895;53.240;6.572;2023-07-08T07:03:08;6.97;;;4.93;;
51854;SDS011;37895;53.240;6.572;2023-07-08T07:05:34;6.07;;;4.28;;
51854;SDS011;37895;53.240;6.572;2023-07-08T07:07:59;6.05;;;4.18;;
51854;SDS011;37895;53.240;6.572;2023-07-08T07:10:25;7.63;;;4.15;;
51854;SDS011;37895;53.240;6.572;2023-07-08T07:12:51;10.10;;;4.10;;
51854;SDS011;37895;53.240;6.572;2023-07-08T07:15:16;7.05;;;4.15;;
51854;SDS011;37895;53.240;6.572;2023-07-08T07:17:42;6.90;;;3.92;;
51854;SDS011;37895;53.240;6.572;2023-07-08T07:20:08;8.90;;;4.00;;
51854;SDS011;37895;53.240;6.572;2023-07-08T07:22:34;9.98;;;4.38;;
51854;SDS011;37895;53.240;6.572;2023-07-08T07:25:00;5.70;;;4.13;;
51854;SDS011;37895;53.240;6.572;2023-07-08T07:27:26;4.40;;;3.90;;
51854;SDS011;37895;53.240;6.572;2023-07-08T07:29:51;6.60;;;3.90;;
51854;SDS011;37895;53.240;6.572;2023-07-08T07:32:18;5.72;;;4.05;;
51854;SDS011;37895;53.240;6.572;2023-07-08T07:34:47;5.80;;;3.70;;
51854;SDS011;37895;53.240;6.572;2023-07-08T07:37:15;5.78;;;4.28;;
51854;SDS011;37895;53.240;6.572;2023-07-08T07:39:42;5.78;;;3.50;;
51854;SDS011;37895;53.240;6.572;2023-07-08T07:44:34;7.00;;;3.90;;
51854;SDS011;37895;53.240;6.572;2023-07-08T07:47:01;4.82;;;4.07;;
51854;SDS011;37895;53.240;6.572;2023-07-08T07:49:28;4.95;;;3.75;;
51854;SDS011;37895;53.240;6.572;2023-07-08T07:51:54;6.70;;;4.65;;
51854;SDS011;37895;53.240;6.572;2023-07-08T07:54:19;5.22;;;3.58;;
51854;SDS011;37895;53.240;6.572;2023-07-08T07:59:13;7.55;;;3.67;;
51854;SDS011;37895;53.240;6.572;2023-07-08T08:01:39;4.88;;;3.75;;
51854;SDS011;37895;53.240;6.572;2023-07-08T08:04:07;6.00;;;3.70;;
51854;SDS011;37895;53.240;6.572;2023-07-08T08:06:33;5.70;;;3.80;;
51854;SDS011;37895;53.240;6.572;2023-07-08T08:08:59;5.82;;;3.55;;
51854;SDS011;37895;53.240;6.572;2023-07-08T08:13:51;6.95;;;4.25;;
51854;SDS011;37895;53.240;6.572;2023-07-08T08:16:17;5.80;;;4.05;;
51854;SDS011;37895;53.240;6.572;2023-07-08T08:18:43;5.60;;;3.70;;
51854;SDS011;37895;53.240;6.572;2023-07-08T08:23:34;6.15;;;3.88;;
51854;SDS011;37895;53.240;6.572;2023-07-08T08:25:59;5.93;;;3.35;;
51854;SDS011;37895;53.240;6.572;2023-07-08T08:30:51;4.43;;;3.58;;
51854;SDS011;37895;53.240;6.572;2023-07-08T08:33:19;5.85;;;3.65;;
51854;SDS011;37895;53.240;6.572;2023-07-08T08:35:45;7.13;;;3.55;;
51854;SDS011;37895;53.240;6.572;2023-07-08T08:40:38;4.68;;;3.55;;
51854;SDS011;37895;53.240;6.572;2023-07-08T08:43:51;4.45;;;3.65;;
51854;SDS011;37895;53.240;6.572;2023-07-08T08:46:09;5.15;;;3.60;;
51854;SDS011;37895;53.240;6.572;2023-07-08T08:49:05;6.57;;;3.38;;
51854;SDS011;37895;53.240;6.572;2023-07-08T08:51:41;5.13;;;3.58;;
51854;SDS011;37895;53.240;6.572;2023-07-08T08:56:47;6.37;;;3.60;;
51854;SDS011;37895;53.240;6.572;2023-07-08T08:59:45;8.27;;;3.50;;
51854;SDS011;37895;53.240;6.572;2023-07-08T09:02:28;5.78;;;3.17;;
51854;SDS011;37895;53.240;6.572;2023-07-08T09:05:07;4.25;;;3.47;;
51854;SDS011;37895;53.240;6.572;2023-07-08T09:07:43;7.40;;;3.38;;
51854;SDS011;37895;53.240;6.572;2023-07-08T09:10:29;5.15;;;4.00;;
51854;SDS011;37895;53.240;6.572;2023-07-08T09:13:01;8.30;;;3.90;;
51854;SDS011;37895;53.240;6.572;2023-07-08T09:15:32;6.20;;;3.92;;
51854;SDS011;37895;53.240;6.572;2023-07-08T09:18:03;5.93;;;3.58;;
51854;SDS011;37895;53.240;6.572;2023-07-08T09:20:42;5.45;;;3.40;;
51854;SDS011;37895;53.240;6.572;2023-07-08T09:25:46;8.38;;;4.35;;
51854;SDS011;37895;53.240;6.572;2023-07-08T09:28:17;7.50;;;3.30;;
51854;SDS011;37895;53.240;6.572;2023-07-08T09:33:11;4.18;;;3.28;;
51854;SDS011;37895;53.240;6.572;2023-07-08T09:38:13;7.68;;;3.25;;
51854;SDS011;37895;53.240;6.572;2023-07-08T09:40:47;6.27;;;3.30;;
51854;SDS011;37895;53.240;6.572;2023-07-08T09:50:39;3.72;;;3.13;;
51854;SDS011;37895;53.240;6.572;2023-07-08T09:53:13;5.05;;;3.00;;
51854;SDS011;37895;53.240;6.572;2023-07-08T09:55:42;5.45;;;3.15;;
51854;SDS011;37895;53.240;6.572;2023-07-08T09:58:08;4.47;;;3.45;;
51854;SDS011;37895;53.240;6.572;2023-07-08T10:00:40;5.15;;;3.20;;
51854;SDS011;37895;53.240;6.572;2023-07-08T10:03:40;3.92;;;3.10;;
51854;SDS011;37895;53.240;6.572;2023-07-08T10:06:03;5.57;;;3.58;;
51854;SDS011;37895;53.240;6.572;2023-07-08T10:08:36;6.22;;;3.20;;
51854;SDS011;37895;53.240;6.572;2023-07-08T10:13:52;5.43;;;3.10;;
51854;SDS011;37895;53.240;6.572;2023-07-08T10:16:27;6.30;;;3.47;;
51854;SDS011;37895;53.240;6.572;2023-07-08T10:18:58;3.97;;;3.00;;
51854;SDS011;37895;53.240;6.572;2023-07-08T10:23:58;6.18;;;3.40;;
51854;SDS011;37895;53.240;6.572;2023-07-08T10:26:31;5.32;;;3.45;;
51854;SDS011;37895;53.240;6.572;2023-07-08T10:29:12;6.20;;;3.17;;
51854;SDS011;37895;53.240;6.572;2023-07-08T10:32:03;6.78;;;3.17;;
51854;SDS011;37895;53.240;6.572;2023-07-08T10:45:49;6.25;;;3.20;;
51854;SDS011;37895;53.240;6.572;2023-07-08T10:51:23;4.05;;;3.10;;
51854;SDS011;37895;53.240;6.572;2023-07-08T10:56:54;5.22;;;3.20;;
51854;SDS011;37895;53.240;6.572;2023-07-08T11:02:34;5.45;;;3.20;;
51854;SDS011;37895;53.240;6.572;2023-07-08T11:05:58;7.53;;;3.08;;
51854;SDS011;37895;53.240;6.572;2023-07-08T11:10:59;5.63;;;3.00;;
51854;SDS011;37895;53.240;6.572;2023-07-08T11:13:31;4.38;;;3.25;;
51854;SDS011;37895;53.240;6.572;2023-07-08T11:16:07;5.45;;;3.88;;
51854;SDS011;37895;53.240;6.572;2023-07-08T11:21:24;8.25;;;3.60;;
51854;SDS011;37895;53.240;6.572;2023-07-08T11:28:53;4.20;;;3.20;;
51854;SDS011;37895;53.240;6.572;2023-07-08T11:31:22;3.53;;;2.80;;
51854;SDS011;37895;53.240;6.572;2023-07-08T11:33:49;8.18;;;3.58;;
51854;SDS011;37895;53.240;6.572;2023-07-08T11:36:17;6.03;;;3.20;;
51854;SDS011;37895;53.240;6.572;2023-07-08T11:38:48;6.03;;;3.08;;
51854;SDS011;37895;53.240;6.572;2023-07-08T11:41:23;5.28;;;3.53;;
51854;SDS011;37895;53.240;6.572;2023-07-08T11:43:56;6.90;;;3.50;;
51854;SDS011;37895;53.240;6.572;2023-07-08T11:46:25;4.28;;;3.22;;
51854;SDS011;37895;53.240;6.572;2023-07-08T11:48:57;4.32;;;3.20;;
51854;SDS011;37895;53.240;6.572;2023-07-08T11:51:29;7.68;;;3.55;;
51854;SDS011;37895;53.240;6.572;2023-07-08T11:54:02;6.40;;;3.25;;
51854;SDS011;37895;53.240;6.572;2023-07-08T11:59:32;4.75;;;3.22;;
51854;SDS011;37895;53.240;6.572;2023-07-08T12:02:03;5.47;;;3.28;;
51854;SDS011;37895;53.240;6.572;2023-07-08T12:04:55;6.65;;;3.22;;
51854;SDS011;37895;53.240;6.572;2023-07-08T12:07:38;6.43;;;3.17;;
51854;SDS011;37895;53.240;6.572;2023-07-08T12:10:23;8.13;;;3.53;;
51854;SDS011;37895;53.240;6.572;2023-07-08T12:13:08;5.80;;;3.30;;
51854;SDS011;37895;53.240;6.572;2023-07-08T12:15:39;4.00;;;3.15;;
51854;SDS011;37895;53.240;6.572;2023-07-08T12:20:39;5.28;;;3.50;;
51854;SDS011;37895;53.240;6.572;2023-07-08T12:23:10;6.75;;;3.78;;
51854;SDS011;37895;53.240;6.572;2023-07-08T12:25:44;5.10;;;3.22;;
51854;SDS011;37895;53.240;6.572;2023-07-08T12:28:10;6.38;;;3.75;;
51854;SDS011;37895;53.240;6.572;2023-07-08T12:30:37;4.32;;;3.20;;
51854;SDS011;37895;53.240;6.572;2023-07-08T12:33:05;7.07;;;3.22;;
51854;SDS011;37895;53.240;6.572;2023-07-08T12:35:39;6.38;;;3.55;;
51854;SDS011;37895;53.240;6.572;2023-07-08T12:38:13;7.47;;;3.65;;
51854;SDS011;37895;53.240;6.572;2023-07-08T12:41:12;6.43;;;3.20;;
51854;SDS011;37895;53.240;6.572;2023-07-08T12:43:38;4.68;;;3.15;;
51854;SDS011;37895;53.240;6.572;2023-07-08T12:46:04;5.40;;;3.47;;
51854;SDS011;37895;53.240;6.572;2023-07-08T12:48:36;5.47;;;3.58;;
51854;SDS011;37895;53.240;6.572;2023-07-08T12:51:02;5.93;;;4.05;;
51854;SDS011;37895;53.240;6.572;2023-07-08T12:53:29;5.43;;;3.50;;
51854;SDS011;37895;53.240;6.572;2023-07-08T12:55:57;4.75;;;3.50;;
51854;SDS011;37895;53.240;6.572;2023-07-08T12:58:25;4.57;;;3.70;;
51854;SDS011;37895;53.240;6.572;2023-07-08T13:00:53;4.93;;;3.30;;
51854;SDS011;37895;53.240;6.572;2023-07-08T13:03:24;5.90;;;3.47;;
51854;SDS011;37895;53.240;6.572;2023-07-08T13:05:53;5.03;;;3.30;;
51854;SDS011;37895;53.240;6.572;2023-07-08T13:08:21;4.88;;;3.55;;
51854;SDS011;37895;53.240;6.572;2023-07-08T13:10:54;4.78;;;3.35;;
51854;SDS011;37895;53.240;6.572;2023-07-08T13:13:24;4.72;;;3.70;;
51854;SDS011;37895;53.240;6.572;2023-07-08T13:15:53;5.88;;;3.35;;
51854;SDS011;37895;53.240;6.572;2023-07-08T13:18:21;5.47;;;3.40;;
51854;SDS011;37895;53.240;6.572;2023-07-08T13:20:53;6.10;;;3.58;;
51854;SDS011;37895;53.240;6.572;2023-07-08T13:23:26;5.80;;;3.72;;
51854;SDS011;37895;53.240;6.572;2023-07-08T13:25:52;6.55;;;3.60;;
51854;SDS011;37895;53.240;6.572;2023-07-08T13:28:29;6.22;;;3.35;;
51854;SDS011;37895;53.240;6.572;2023-07-08T13:31:02;6.78;;;3.83;;
51854;SDS011;37895;53.240;6.572;2023-07-08T13:33:44;5.47;;;3.58;;
51854;SDS011;37895;53.240;6.572;2023-07-08T13:36:11;6.78;;;3.67;;
51854;SDS011;37895;53.240;6.572;2023-07-08T13:38:40;5.65;;;3.65;;
51854;SDS011;37895;53.240;6.572;2023-07-08T13:41:07;6.07;;;3.97;;
51854;SDS011;37895;53.240;6.572;2023-07-08T13:43:38;4.15;;;3.55;;
51854;SDS011;37895;53.240;6.572;2023-07-08T13:46:25;6.30;;;3.97;;
51854;SDS011;37895;53.240;6.572;2023-07-08T13:48:54;5.40;;;3.50;;
51854;SDS011;37895;53.240;6.572;2023-07-08T13:51:21;8.40;;;3.70;;
51854;SDS011;37895;53.240;6.572;2023-07-08T13:53:52;7.57;;;4.28;;
51854;SDS011;37895;53.240;6.572;2023-07-08T13:56:27;8.52;;;5.43;;
51854;SDS011;37895;53.240;6.572;2023-07-08T13:59:05;9.80;;;6.82;;
51854;SDS011;37895;53.240;6.572;2023-07-08T14:01:38;8.60;;;7.53;;
51854;SDS011;37895;53.240;6.572;2023-07-08T14:04:05;10.90;;;7.82;;
51854;SDS011;37895;53.240;6.572;2023-07-08T14:06:34;8.30;;;7.38;;
51854;SDS011;37895;53.240;6.572;2023-07-08T14:11:36;11.80;;;8.93;;
51854;SDS011;37895;53.240;6.572;2023-07-08T14:14:02;9.38;;;7.70;;
51854;SDS011;37895;53.240;6.572;2023-07-08T14:16:28;9.38;;;7.35;;
51854;SDS011;37895;53.240;6.572;2023-07-08T14:18:55;9.65;;;6.50;;
51854;SDS011;37895;53.240;6.572;2023-07-08T14:21:23;9.23;;;5.93;;
51854;SDS011;37895;53.240;6.572;2023-07-08T14:23:48;7.00;;;5.70;;
51854;SDS011;37895;53.240;6.572;2023-07-08T14:26:14;6.03;;;5.15;;
51854;SDS011;37895;53.240;6.572;2023-07-08T14:28:40;6.78;;;5.05;;
51854;SDS011;37895;53.240;6.572;2023-07-08T14:31:12;10.35;;;5.03;;
51854;SDS011;37895;53.240;6.572;2023-07-08T14:33:43;7.13;;;4.80;;
51854;SDS011;37895;53.240;6.572;2023-07-08T14:36:09;5.75;;;4.15;;
51854;SDS011;37895;53.240;6.572;2023-07-08T14:38:35;5.63;;;4.15;;
51854;SDS011;37895;53.240;6.572;2023-07-08T14:41:02;7.05;;;4.50;;
51854;SDS011;37895;53.240;6.572;2023-07-08T14:43:28;4.90;;;3.83;;
51854;SDS011;37895;53.240;6.572;2023-07-08T14:45:55;6.10;;;4.13;;
51854;SDS011;37895;53.240;6.572;2023-07-08T14:48:24;6.63;;;4.30;;
51854;SDS011;37895;53.240;6.572;2023-07-08T14:50:52;5.72;;;4.68;;
51854;SDS011;37895;53.240;6.572;2023-07-08T14:53:18;8.07;;;4.32;;
51854;SDS011;37895;53.240;6.572;2023-07-08T14:55:44;6.65;;;4.57;;
51854;SDS011;37895;53.240;6.572;2023-07-08T15:00:47;5.28;;;4.43;;
51854;SDS011;37895;53.240;6.572;2023-07-08T15:03:13;7.43;;;4.50;;
51854;SDS011;37895;53.240;6.572;2023-07-08T15:05:38;6.60;;;4.30;;
51854;SDS011;37895;53.240;6.572;2023-07-08T15:08:04;7.63;;;4.50;;
51854;SDS011;37895;53.240;6.572;2023-07-08T15:10:30;8.57;;;4.60;;
51854;SDS011;37895;53.240;6.572;2023-07-08T15:12:58;7.10;;;4.43;;
51854;SDS011;37895;53.240;6.572;2023-07-08T15:15:30;5.38;;;4.22;;
51854;SDS011;37895;53.240;6.572;2023-07-08T15:17:58;8.27;;;4.47;;
51854;SDS011;37895;53.240;6.572;2023-07-08T15:20:27;7.18;;;4.70;;
51854;SDS011;37895;53.240;6.572;2023-07-08T15:22:53;9.70;;;4.50;;
51854;SDS011;37895;53.240;6.572;2023-07-08T15:25:19;7.38;;;4.53;;
51854;SDS011;37895;53.240;6.572;2023-07-08T15:27:49;6.57;;;5.00;;
51854;SDS011;37895;53.240;6.572;2023-07-08T15:30:18;8.00;;;4.80;;
51854;SDS011;37895;53.240;6.572;2023-07-08T15:32:49;5.50;;;4.18;;
51854;SDS011;37895;53.240;6.572;2023-07-08T15:35:26;5.93;;;4.22;;
51854;SDS011;37895;53.240;6.572;2023-07-08T15:37:57;7.05;;;4.90;;
51854;SDS011;37895;53.240;6.572;2023-07-08T15:40:24;5.97;;;4.40;;
51854;SDS011;37895;53.240;6.572;2023-07-08T15:42:54;5.72;;;4.50;;
51854;SDS011;37895;53.240;6.572;2023-07-08T15:45:36;6.55;;;4.90;;
51854;SDS011;37895;53.240;6.572;2023-07-08T15:48:03;7.88;;;5.00;;
51854;SDS011;37895;53.240;6.572;2023-07-08T15:50:29;6.43;;;4.82;;
51854;SDS011;37895;53.240;6.572;2023-07-08T15:52:55;6.85;;;4.45;;
51854;SDS011;37895;53.240;6.572;2023-07-08T15:55:23;7.22;;;4.93;;
51854;SDS011;37895;53.240;6.572;2023-07-08T15:57:55;7.10;;;4.82;;
51854;SDS011;37895;53.240;6.572;2023-07-08T16:00:27;13.57;;;4.85;;
51854;SDS011;37895;53.240;6.572;2023-07-08T16:02:59;6.88;;;4.47;;
51854;SDS011;37895;53.240;6.572;2023-07-08T16:05:29;7.50;;;5.13;;
51854;SDS011;37895;53.240;6.572;2023-07-08T16:07:56;9.32;;;4.85;;
51854;SDS011;37895;53.240;6.572;2023-07-08T16:10:23;6.35;;;5.13;;
51854;SDS011;37895;53.240;6.572;2023-07-08T16:12:50;6.20;;;4.97;;
51854;SDS011;37895;53.240;6.572;2023-07-08T16:15:19;6.97;;;4.60;;
51854;SDS011;37895;53.240;6.572;2023-07-08T16:17:49;6.03;;;4.85;;
51854;SDS011;37895;53.240;6.572;2023-07-08T16:20:16;7.22;;;4.72;;
51854;SDS011;37895;53.240;6.572;2023-07-08T16:22:44;6.70;;;5.45;;
51854;SDS011;37895;53.240;6.572;2023-07-08T16:25:12;7.07;;;5.15;;
51854;SDS011;37895;53.240;6.572;2023-07-08T16:27:38;7.47;;;4.80;;
51854;SDS011;37895;53.240;6.572;2023-07-08T16:30:05;10.77;;;5.10;;
51854;SDS011;37895;53.240;6.572;2023-07-08T16:32:34;7.57;;;4.85;;
51854;SDS011;37895;53.240;6.572;2023-07-08T16:35:02;8.15;;;5.07;;
51854;SDS011;37895;53.240;6.572;2023-07-08T16:37:32;5.85;;;4.25;;
51854;SDS011;37895;53.240;6.572;2023-07-08T16:39:58;8.30;;;4.82;;
51854;SDS011;37895;53.240;6.572;2023-07-08T16:42:24;10.27;;;5.40;;
51854;SDS011;37895;53.240;6.572;2023-07-08T16:44:49;9.07;;;5.00;;
51854;SDS011;37895;53.240;6.572;2023-07-08T16:47:15;7.40;;;4.85;;
51854;SDS011;37895;53.240;6.572;2023-07-08T16:49:44;7.63;;;4.75;;
51854;SDS011;37895;53.240;6.572;2023-07-08T16:52:13;8.05;;;5.53;;